createdAt,value
2023-09-12T00:01:16.038Z,99302.84
2023-09-12T00:03:45.001Z,99300.03
2023-09-12T00:06:13.984Z,99283.66
2023-09-12T00:08:43.193Z,99290.06
2023-09-12T00:11:15.439Z,99293.44
2023-09-12T00:13:44.241Z,99309.19
2023-09-12T00:16:13.473Z,99310.22
2023-09-12T00:18:42.676Z,99271.69
2023-09-12T00:21:11.907Z,99304.09
2023-09-12T00:23:40.698Z,99295.41
2023-09-12T00:26:09.425Z,99299.88
2023-09-12T00:28:40.760Z,99314.47
2023-09-12T00:31:09.857Z,99316.06
2023-09-12T00:33:38.621Z,99332.28
2023-09-12T00:36:07.657Z,99332.47
2023-09-12T00:38:36.511Z,99318.22
2023-09-12T00:41:05.322Z,99322.75
2023-09-12T00:43:34.043Z,99340.75
2023-09-12T00:46:03.503Z,99323.50
2023-09-12T00:48:32.837Z,99323.22
2023-09-12T00:51:03.019Z,99337.91
2023-09-12T00:53:32.040Z,99327.72
2023-09-12T00:56:01.807Z,99333.94
2023-09-12T00:58:31.639Z,99335.75
2023-09-12T01:01:00.635Z,99326.97
2023-09-12T01:03:29.763Z,99338.38
2023-09-12T01:06:01.108Z,99334.88
2023-09-12T01:08:30.240Z,99344.31
2023-09-12T01:11:00.321Z,99315.94
2023-09-12T01:13:30.480Z,99337.34
2023-09-12T01:15:59.554Z,99323.09
2023-09-12T01:18:28.407Z,99273.97
2023-09-12T01:21:20.577Z,99337.69
2023-09-12T01:24:04.246Z,99337.56
2023-09-12T01:27:00.839Z,99351.81
2023-09-12T01:29:30.407Z,99327.78
2023-09-12T01:32:00.845Z,99311.66
2023-09-12T01:34:30.032Z,99333.28
2023-09-12T01:36:59.547Z,99331.94
2023-09-12T01:39:28.685Z,99330.91
2023-09-12T01:41:59.207Z,99322.75
2023-09-12T01:44:30.460Z,99335.47
2023-09-12T01:47:03.674Z,99314.72
2023-09-12T01:49:35.059Z,99320.75
2023-09-12T01:52:04.641Z,99319.16
2023-09-12T01:54:35.986Z,99305.69
2023-09-12T01:57:05.705Z,99344.38
2023-09-12T01:59:34.464Z,99335.97
2023-09-12T02:02:03.462Z,99324.59
2023-09-12T02:04:32.368Z,99334.22
2023-09-12T02:07:01.241Z,99330.28
2023-09-12T02:09:30.225Z,99318.66
2023-09-12T02:11:58.868Z,99335.19
2023-09-12T02:14:27.768Z,99302.47
2023-09-12T02:16:56.524Z,99338.69
2023-09-12T02:19:25.310Z,99342.28
2023-09-12T02:21:54.159Z,99342.53
2023-09-12T02:24:23.357Z,99347.88
2023-09-12T02:26:52.212Z,99316.59
2023-09-12T02:29:20.762Z,99342.03
2023-09-12T02:31:49.632Z,99316.22
2023-09-12T02:34:18.540Z,99332.31
2023-09-12T02:36:47.301Z,99332.75
2023-09-12T02:39:16.265Z,99333.00
2023-09-12T02:41:44.962Z,99332.03
2023-09-12T02:44:14.169Z,99339.84
2023-09-12T02:46:42.997Z,99340.28
2023-09-12T02:49:11.993Z,99340.69
2023-09-12T02:51:41.540Z,99342.16
2023-09-12T02:54:10.354Z,99333.69
2023-09-12T02:56:39.322Z,99332.09
2023-09-12T02:59:08.690Z,99340.66
2023-09-12T03:01:37.508Z,99343.59
2023-09-12T03:04:09.381Z,99327.47
2023-09-12T03:06:38.490Z,99332.69
2023-09-12T03:09:08.579Z,99330.88
2023-09-12T03:11:37.359Z,99350.69
2023-09-12T03:14:06.212Z,99337.44
2023-09-12T03:16:34.906Z,99310.13
2023-09-12T03:19:04.900Z,99344.28
2023-09-12T03:21:33.830Z,99348.19
2023-09-12T03:24:02.844Z,99340.47
2023-09-12T03:26:32.622Z,99317.00
2023-09-12T03:29:01.341Z,99336.69
2023-09-12T03:31:30.862Z,99343.63
2023-09-12T03:34:00.284Z,99330.97
2023-09-12T03:36:29.183Z,99348.41
2023-09-12T03:38:58.171Z,99341.91
2023-09-12T03:41:27.682Z,99338.81
2023-09-12T03:43:58.685Z,99339.78
2023-09-12T03:46:27.354Z,99353.09
2023-09-12T03:48:56.374Z,99349.72
2023-09-12T03:51:25.941Z,99353.94
2023-09-12T03:53:54.778Z,99344.41
2023-09-12T03:56:26.675Z,99341.38
2023-09-12T03:58:58.301Z,99350.91
2023-09-12T04:01:28.164Z,99350.00
2023-09-12T04:03:58.544Z,99333.84
2023-09-12T04:06:28.667Z,99347.88
2023-09-12T04:08:57.938Z,99355.59
2023-09-12T04:11:39.827Z,99318.25
2023-09-12T04:14:13.588Z,99335.06
2023-09-12T04:16:42.825Z,99341.59
2023-09-12T04:19:12.038Z,99342.19
2023-09-12T04:21:41.915Z,99345.19
2023-09-12T04:24:11.409Z,99328.75
2023-09-12T04:26:40.753Z,99327.41
2023-09-12T04:29:09.860Z,99342.75
2023-09-12T04:31:39.916Z,99319.66
2023-09-12T04:34:09.353Z,99346.94
2023-09-12T04:36:38.650Z,99338.97
2023-09-12T04:39:07.979Z,99344.03
2023-09-12T04:41:37.491Z,99326.19
2023-09-12T04:44:06.883Z,99275.91
2023-09-12T04:46:36.647Z,99316.13
2023-09-12T04:49:06.690Z,99321.13
2023-09-12T04:51:36.564Z,99326.59
2023-09-12T04:54:06.302Z,99336.13
2023-09-12T04:56:36.042Z,99301.06
2023-09-12T04:59:05.370Z,99299.81
2023-09-12T05:01:35.444Z,99329.91
2023-09-12T05:04:05.314Z,99312.13
2023-09-12T05:06:34.947Z,99317.53
2023-09-12T05:09:05.061Z,99327.63
2023-09-12T05:11:34.183Z,99311.91
2023-09-12T05:14:05.438Z,99336.38
2023-09-12T05:16:34.631Z,99276.97
2023-09-12T05:19:03.910Z,99316.22
2023-09-12T05:21:33.245Z,99325.69
2023-09-12T05:24:02.382Z,99328.22
2023-09-12T05:26:31.279Z,99322.88
2023-09-12T05:29:00.330Z,99321.34
2023-09-12T05:31:29.260Z,99275.28
2023-09-12T05:33:58.472Z,99320.28
2023-09-12T05:36:27.683Z,99326.34
2023-09-12T05:38:58.110Z,99304.53
2023-09-12T05:41:28.957Z,99321.66
2023-09-12T05:43:58.161Z,99326.19
2023-09-12T05:46:27.002Z,99306.63
2023-09-12T05:48:56.089Z,99309.03
2023-09-12T05:51:25.021Z,99323.94
2023-09-12T05:53:53.805Z,99325.00
2023-09-12T05:56:22.801Z,99318.16
2023-09-12T05:58:52.022Z,99314.34
2023-09-12T06:01:20.830Z,99332.94
2023-09-12T06:03:50.084Z,99316.31
2023-09-12T06:06:19.082Z,99327.00
2023-09-12T06:08:48.425Z,99342.63
2023-09-12T06:11:17.316Z,99295.06
2023-09-12T06:13:46.634Z,99344.09
2023-09-12T06:16:15.617Z,99335.41
2023-09-12T06:18:44.900Z,99318.84
2023-09-12T06:21:14.155Z,99311.84
2023-09-12T06:23:42.997Z,99321.38
2023-09-12T06:26:12.135Z,99246.50
2023-09-12T06:28:40.903Z,99309.59
2023-09-12T06:31:12.643Z,99327.31
2023-09-12T06:33:41.934Z,99332.50
2023-09-12T06:36:10.856Z,99330.38
2023-09-12T06:38:40.004Z,99282.19
2023-09-12T06:41:09.022Z,99308.75
2023-09-12T06:43:37.944Z,99319.16
2023-09-12T06:46:06.930Z,99325.75
2023-09-12T06:48:35.904Z,99272.38
2023-09-12T06:51:13.554Z,99323.78
2023-09-12T06:53:44.320Z,99308.88
2023-09-12T06:56:15.702Z,99303.94
2023-09-12T06:58:44.605Z,99298.19
2023-09-12T07:01:13.696Z,99293.41
2023-09-12T07:03:42.904Z,99286.97
2023-09-12T07:06:12.130Z,99311.41
2023-09-12T07:08:40.983Z,99296.66
2023-09-12T07:11:10.009Z,99310.97
2023-09-12T07:13:38.757Z,99277.84
2023-09-12T07:16:07.801Z,99308.47
2023-09-12T07:18:36.645Z,99317.72
2023-09-12T07:21:08.472Z,99251.41
2023-09-12T07:23:37.485Z,99282.91
2023-09-12T07:26:06.324Z,99305.06
2023-09-12T07:28:34.863Z,99308.28
2023-09-12T07:31:04.287Z,99294.44
2023-09-12T07:33:32.957Z,99306.03
2023-09-12T07:36:02.171Z,99307.84
2023-09-12T07:38:32.839Z,99306.81
2023-09-12T07:41:02.619Z,99288.25
2023-09-12T07:43:31.449Z,99245.75
2023-09-12T07:46:00.637Z,99289.13
2023-09-12T07:48:29.906Z,99266.63
2023-09-12T07:50:58.700Z,99277.78
2023-09-12T07:53:27.478Z,99281.00
2023-09-12T07:55:57.106Z,99255.66
2023-09-12T07:58:25.919Z,99306.22
2023-09-12T08:00:54.848Z,99290.25
2023-09-12T08:03:23.740Z,99291.25
2023-09-12T08:06:01.478Z,99309.44
2023-09-12T08:08:30.444Z,99289.31
2023-09-12T08:11:02.156Z,99289.53
2023-09-12T08:13:32.257Z,99309.03
2023-09-12T08:16:01.216Z,99295.06
2023-09-12T08:18:33.084Z,99316.13
2023-09-12T08:21:04.619Z,99292.75
2023-09-12T08:23:33.618Z,99298.66
2023-09-12T08:26:02.397Z,99291.69
2023-09-12T08:28:31.116Z,99306.56
2023-09-12T08:31:00.253Z,99298.03
2023-09-12T08:33:29.147Z,99289.94
2023-09-12T08:35:58.041Z,99302.16
2023-09-12T08:38:26.916Z,99275.81
2023-09-12T08:40:55.575Z,99257.44
2023-09-12T08:43:24.424Z,99297.81
2023-09-12T08:45:53.830Z,99311.69
2023-09-12T08:48:25.834Z,99329.25
2023-09-12T08:50:55.963Z,99286.94
2023-09-12T08:53:24.798Z,99302.41
2023-09-12T08:55:54.643Z,99312.81
2023-09-12T08:58:24.908Z,99316.41
2023-09-12T09:00:54.765Z,99328.97
2023-09-12T09:03:25.306Z,99307.63
2023-09-12T09:05:56.461Z,99331.03
2023-09-12T09:08:26.551Z,99320.25
2023-09-12T09:10:59.635Z,99323.91
2023-09-12T09:13:28.652Z,99318.75
2023-09-12T09:16:17.303Z,99319.44
2023-09-12T09:18:56.508Z,99326.44
2023-09-12T09:21:27.792Z,99314.19
2023-09-12T09:23:57.677Z,99264.03
2023-09-12T09:26:26.382Z,99310.56
2023-09-12T09:29:13.330Z,99325.72
2023-09-12T09:31:46.493Z,99312.69
2023-09-12T09:34:19.309Z,99315.44
2023-09-12T09:36:53.588Z,99316.59
2023-09-12T09:39:25.134Z,99320.03
2023-09-12T09:41:59.320Z,99326.59
2023-09-12T09:44:30.085Z,99342.13
2023-09-12T09:47:06.528Z,99354.09
2023-09-12T09:49:36.630Z,99328.41
2023-09-12T09:52:08.981Z,99324.53
2023-09-12T09:54:38.718Z,99344.78
2023-09-12T09:57:08.300Z,99331.28
2023-09-12T09:59:37.341Z,99347.19
2023-09-12T10:02:15.596Z,99349.41
2023-09-12T10:04:46.307Z,99337.56
2023-09-12T10:07:18.134Z,99337.22
2023-09-12T10:09:48.139Z,99336.09
2023-09-12T10:12:17.934Z,99346.63
2023-09-12T10:14:48.093Z,99337.78
2023-09-12T10:17:21.965Z,99332.44
2023-09-12T10:19:58.516Z,99326.06
2023-09-12T10:22:34.167Z,99334.59
2023-09-12T10:25:03.617Z,99323.91
2023-09-12T10:27:35.100Z,99349.47
2023-09-12T10:30:06.483Z,99326.19
2023-09-12T10:32:37.198Z,99355.59
2023-09-12T10:35:10.284Z,99338.66
2023-09-12T10:37:44.118Z,99353.00
2023-09-12T10:40:14.357Z,99306.38
2023-09-12T10:42:44.670Z,99355.78
2023-09-12T10:45:13.859Z,99298.19
2023-09-12T10:47:42.741Z,99346.06
2023-09-12T10:50:11.921Z,99364.28
2023-09-12T10:52:42.805Z,99369.28
2023-09-12T10:55:20.225Z,99364.97
2023-09-12T10:58:06.436Z,99377.53
2023-09-12T11:00:36.160Z,99342.84
2023-09-12T11:03:30.086Z,99366.59
2023-09-12T11:05:59.197Z,99348.47
2023-09-12T11:08:29.740Z,99354.22
2023-09-12T11:11:24.480Z,99368.53
2023-09-12T11:14:09.799Z,99357.44
2023-09-12T11:16:38.247Z,99364.81
2023-09-12T11:19:25.459Z,99350.75
2023-09-12T11:21:57.762Z,99313.78
2023-09-12T11:24:26.649Z,99354.47
2023-09-12T11:26:55.879Z,99369.00
2023-09-12T11:29:30.843Z,99373.53
2023-09-12T11:32:01.691Z,99381.94
2023-09-12T11:34:32.243Z,99386.38
2023-09-12T11:37:02.422Z,99366.91
2023-09-12T11:39:36.404Z,99375.81
2023-09-12T11:42:06.723Z,99389.81
2023-09-12T11:44:35.949Z,99359.75
2023-09-12T11:47:09.330Z,99381.66
2023-09-12T11:49:39.690Z,99366.75
2023-09-12T11:52:18.148Z,99387.22
2023-09-12T11:54:47.219Z,99380.03
2023-09-12T11:57:17.131Z,99392.28
2023-09-12T11:59:50.200Z,99384.66
2023-09-12T12:02:18.926Z,99380.97
2023-09-12T12:04:48.061Z,99381.44
2023-09-12T12:07:16.959Z,99390.19
2023-09-12T12:09:46.339Z,99390.63
2023-09-12T12:12:18.713Z,99392.19
2023-09-12T12:14:47.748Z,99397.91
2023-09-12T12:17:17.881Z,99392.06
2023-09-12T12:19:48.458Z,99401.53
2023-09-12T12:22:17.398Z,99406.22
2023-09-12T12:24:49.578Z,99386.50
2023-09-12T12:27:18.951Z,99355.19
2023-09-12T12:29:50.966Z,99400.88
2023-09-12T12:32:19.707Z,99388.38
2023-09-12T12:35:41.924Z,99421.41
2023-09-12T12:37:41.353Z,99416.09
2023-09-12T12:40:15.128Z,99408.38
2023-09-12T12:42:53.916Z,99421.59
2023-09-12T12:45:25.597Z,99415.00
2023-09-12T12:48:01.820Z,99409.38
2023-09-12T12:50:30.678Z,99400.94
2023-09-12T12:52:59.464Z,99413.03
2023-09-12T12:55:28.785Z,99399.81
2023-09-12T12:57:57.940Z,99412.19
2023-09-12T13:00:26.822Z,99409.22
2023-09-12T13:02:55.775Z,99420.34
2023-09-12T13:05:29.840Z,99425.00
2023-09-12T13:07:58.748Z,99427.09
2023-09-12T13:10:27.750Z,99428.50
2023-09-12T13:12:56.600Z,99436.09
2023-09-12T13:15:28.478Z,99436.38
2023-09-12T13:17:57.475Z,99441.72
2023-09-12T13:20:26.370Z,99428.47
2023-09-12T13:22:55.080Z,99385.59
2023-09-12T13:25:25.371Z,99448.59
2023-09-12T13:27:54.142Z,99459.53
2023-09-12T13:30:23.128Z,99438.31
2023-09-12T13:32:52.035Z,99434.50
2023-09-12T13:35:21.081Z,99447.31
2023-09-12T13:37:49.829Z,99460.50
2023-09-12T13:40:18.580Z,99446.72
2023-09-12T13:42:47.528Z,99457.56
2023-09-12T13:45:16.671Z,99456.69
2023-09-12T13:47:45.643Z,99454.75
2023-09-12T13:50:14.299Z,99472.72
2023-09-12T13:52:43.150Z,99461.97
2023-09-12T13:55:16.702Z,99488.03
2023-09-12T13:57:53.771Z,99481.75
2023-09-12T14:00:33.856Z,99485.56
2023-09-12T14:03:05.928Z,99495.09
2023-09-12T14:05:35.331Z,99478.94
2023-09-12T14:08:04.719Z,99482.59
2023-09-12T14:10:37.612Z,99484.53
2023-09-12T14:13:20.267Z,99479.72
2023-09-12T14:15:55.576Z,99499.31
2023-09-12T14:18:28.884Z,99490.41
2023-09-12T14:21:01.709Z,99492.97
2023-09-12T14:23:30.843Z,99487.31
2023-09-12T14:26:00.117Z,99509.78
2023-09-12T14:28:30.750Z,99505.59
2023-09-12T14:31:00.088Z,99516.38
2023-09-12T14:33:28.894Z,99506.00
2023-09-12T14:35:57.919Z,99503.00
2023-09-12T14:38:26.683Z,99511.84
2023-09-12T14:40:55.666Z,99506.88
2023-09-12T14:43:25.382Z,99516.09
2023-09-12T14:45:54.275Z,99522.81
2023-09-12T14:48:23.544Z,99522.69
2023-09-12T14:50:52.578Z,99520.47
2023-09-12T14:53:21.501Z,99532.59
2023-09-12T14:55:50.400Z,99541.56
2023-09-12T14:58:19.136Z,99537.72
2023-09-12T15:00:48.298Z,99515.03
2023-09-12T15:03:17.332Z,99549.13
2023-09-12T15:05:46.281Z,99548.38
2023-09-12T15:08:15.139Z,99555.66
2023-09-12T15:10:43.918Z,99552.66
2023-09-12T15:13:12.999Z,99534.88
2023-09-12T15:15:42.147Z,99545.31
2023-09-12T15:18:10.949Z,99534.88
2023-09-12T15:20:39.887Z,99536.91
2023-09-12T15:23:08.741Z,99550.13
2023-09-12T15:25:42.681Z,99544.56
2023-09-12T15:28:11.442Z,99542.28
2023-09-12T15:30:40.367Z,99532.97
2023-09-12T15:33:09.676Z,99536.03
2023-09-12T15:35:38.565Z,99550.41
2023-09-12T15:38:09.923Z,99470.28
2023-09-12T15:40:38.701Z,99542.19
2023-09-12T15:43:20.891Z,99537.97
2023-09-12T15:45:53.233Z,99553.41
2023-09-12T15:48:22.455Z,99499.16
2023-09-12T15:50:51.386Z,99538.78
2023-09-12T15:53:20.203Z,99545.31
2023-09-12T15:55:50.633Z,99552.09
2023-09-12T15:58:19.304Z,99542.41
2023-09-12T16:00:50.347Z,99541.69
2023-09-12T16:03:19.593Z,99543.13
2023-09-12T16:05:48.875Z,99551.72
2023-09-12T16:08:17.903Z,99552.56
2023-09-12T16:10:46.626Z,99552.56
2023-09-12T16:13:15.954Z,99533.72
2023-09-12T16:15:44.796Z,99530.06
2023-09-12T16:18:13.728Z,99536.81
2023-09-12T16:20:42.425Z,99541.19
2023-09-12T16:23:11.187Z,99542.16
2023-09-12T16:25:40.191Z,99529.34
2023-09-12T16:28:08.897Z,99483.66
2023-09-12T16:30:39.622Z,99540.00
2023-09-12T16:33:12.104Z,99549.31
2023-09-12T16:35:41.101Z,99536.63
2023-09-12T16:38:10.266Z,99540.84
2023-09-12T16:40:40.801Z,99534.19
2023-09-12T16:43:14.359Z,99537.09
2023-09-12T16:45:43.634Z,99532.84
2023-09-12T16:48:13.260Z,99549.31
2023-09-12T16:50:42.024Z,99531.53
2023-09-12T16:53:10.930Z,99527.41
2023-09-12T16:55:39.548Z,99528.63
2023-09-12T16:58:08.455Z,99547.75
2023-09-12T17:00:37.320Z,99525.28
2023-09-12T17:03:06.388Z,99550.44
2023-09-12T17:05:35.285Z,99545.59
2023-09-12T17:08:04.202Z,99536.69
2023-09-12T17:10:33.301Z,99479.38
2023-09-12T17:13:02.738Z,99540.91
2023-09-12T17:15:31.505Z,99483.94
2023-09-12T17:18:00.475Z,99545.41
2023-09-12T17:20:29.403Z,99534.72
2023-09-12T17:22:58.204Z,99530.00
2023-09-12T17:25:27.123Z,99533.78
2023-09-12T17:27:55.980Z,99542.72
2023-09-12T17:30:24.856Z,99487.06
2023-09-12T17:32:54.417Z,99524.81
2023-09-12T17:35:23.657Z,99523.06
2023-09-12T17:37:52.880Z,99533.97
2023-09-12T17:40:22.875Z,99533.25
2023-09-12T17:42:52.731Z,99534.19
2023-09-12T17:45:21.833Z,99528.09
2023-09-12T17:47:52.605Z,99545.31
2023-09-12T17:50:21.421Z,99548.69
2023-09-12T17:52:50.662Z,99545.03
2023-09-12T17:55:21.110Z,99558.94
2023-09-12T17:57:50.065Z,99508.72
2023-09-12T18:00:19.226Z,99490.75
2023-09-12T18:02:48.662Z,99555.38
2023-09-12T18:05:18.234Z,99554.16
2023-09-12T18:07:47.633Z,99546.50
2023-09-12T18:10:17.202Z,99532.47
2023-09-12T18:12:48.549Z,99524.34
2023-09-12T18:15:17.910Z,99541.13
2023-09-12T18:17:47.092Z,99547.06
2023-09-12T18:20:17.404Z,99561.28
2023-09-12T18:22:46.194Z,99544.34
2023-09-12T18:25:16.720Z,99499.03
2023-09-12T18:27:45.926Z,99544.06
2023-09-12T18:30:15.211Z,99543.53
2023-09-12T18:32:47.241Z,99558.06
2023-09-12T18:35:16.627Z,99522.47
2023-09-12T18:37:45.581Z,99537.84
2023-09-12T18:40:14.828Z,99485.41
2023-09-12T18:42:47.148Z,99528.13
2023-09-12T18:45:18.124Z,99552.47
2023-09-12T18:47:47.114Z,99557.91
2023-09-12T18:50:16.644Z,99543.84
2023-09-12T18:52:55.354Z,99565.25
2023-09-12T18:55:26.202Z,99549.75
2023-09-12T18:57:55.393Z,99542.13
2023-09-12T19:00:24.472Z,99532.06
2023-09-12T19:02:55.925Z,99552.06
2023-09-12T19:05:26.301Z,99559.19
2023-09-12T19:07:56.292Z,99537.78
2023-09-12T19:10:25.282Z,99536.41
2023-09-12T19:12:54.800Z,99534.81
2023-09-12T19:15:26.772Z,99553.19
2023-09-12T19:17:55.943Z,99539.63
2023-09-12T19:20:24.583Z,99552.84
2023-09-12T19:22:53.887Z,99539.63
2023-09-12T19:25:22.727Z,99550.88
2023-09-12T19:27:51.823Z,99541.66
2023-09-12T19:30:20.871Z,99538.78
2023-09-12T19:32:49.895Z,99557.75
2023-09-12T19:35:20.911Z,99551.72
2023-09-12T19:37:49.862Z,99540.06
2023-09-12T19:40:20.354Z,99556.06
2023-09-12T19:42:49.286Z,99557.34
2023-09-12T19:45:18.066Z,99550.69
2023-09-12T19:48:00.100Z,99560.84
2023-09-12T19:50:33.254Z,99560.09
2023-09-12T19:53:02.135Z,99558.53
2023-09-12T19:55:30.995Z,99539.44
2023-09-12T19:57:59.636Z,99562.31
2023-09-12T20:00:28.520Z,99565.59
2023-09-12T20:02:57.243Z,99547.47
2023-09-12T20:05:26.217Z,99543.47
2023-09-12T20:07:55.050Z,99558.59
2023-09-12T20:10:24.677Z,99547.69
2023-09-12T20:12:53.573Z,99572.94
2023-09-12T20:15:23.078Z,99551.53
2023-09-12T20:17:55.117Z,99544.94
2023-09-12T20:20:23.882Z,99550.03
2023-09-12T20:22:52.680Z,99557.91
2023-09-12T20:25:23.182Z,99550.38
2023-09-12T20:27:52.125Z,99571.69
2023-09-12T20:30:22.838Z,99572.88
2023-09-12T20:32:58.902Z,99550.94
2023-09-12T20:35:34.978Z,99560.25
2023-09-12T20:38:06.425Z,99509.47
2023-09-12T20:40:35.284Z,99561.13
2023-09-12T20:43:04.298Z,99583.50
2023-09-12T20:45:33.196Z,99562.41
2023-09-12T20:48:02.167Z,99600.78
2023-09-12T20:50:34.701Z,99592.97
2023-09-12T20:53:07.660Z,99571.75
2023-09-12T20:55:39.864Z,99564.75
2023-09-12T20:58:08.860Z,99584.78
2023-09-12T21:00:37.941Z,99575.78
2023-09-12T21:03:07.803Z,99592.97
2023-09-12T21:05:37.253Z,99589.56
2023-09-12T21:08:06.093Z,99589.56
2023-09-12T21:10:34.971Z,99588.28
2023-09-12T21:13:04.408Z,99596.97
2023-09-12T21:15:33.335Z,99583.63
2023-09-12T21:18:02.191Z,99604.19
2023-09-12T21:20:30.840Z,99599.00
2023-09-12T21:22:59.845Z,99614.09
2023-09-12T21:25:28.864Z,99592.72
2023-09-12T21:27:57.616Z,99608.44
2023-09-12T21:30:26.429Z,99596.75
2023-09-12T21:32:55.846Z,99611.94
2023-09-12T21:35:24.843Z,99623.69
2023-09-12T21:37:53.571Z,99623.88
2023-09-12T21:40:22.999Z,99613.69
2023-09-12T21:42:52.025Z,99596.63
2023-09-12T21:45:20.931Z,99604.56
2023-09-12T21:47:50.350Z,99626.13
2023-09-12T21:50:19.168Z,99601.47
2023-09-12T21:52:47.961Z,99630.97
2023-09-12T21:55:16.727Z,99617.91
2023-09-12T21:57:48.778Z,99624.03
2023-09-12T22:00:30.085Z,99634.00
2023-09-12T22:03:00.206Z,99633.13
2023-09-12T22:05:29.124Z,99621.41
2023-09-12T22:07:58.223Z,99620.13
2023-09-12T22:10:27.053Z,99644.31
2023-09-12T22:12:55.935Z,99634.53
2023-09-12T22:15:24.662Z,99584.72
2023-09-12T22:17:53.458Z,99656.53
2023-09-12T22:20:22.461Z,99640.59
2023-09-12T22:22:51.068Z,99642.69
2023-09-12T22:25:19.914Z,99656.69
2023-09-12T22:27:48.635Z,99655.25
2023-09-12T22:30:17.596Z,99599.50
2023-09-12T22:32:46.242Z,99643.88
2023-09-12T22:35:15.042Z,99657.47
2023-09-12T22:37:44.401Z,99655.97
2023-09-12T22:40:13.675Z,99666.38
2023-09-12T22:42:43.041Z,99661.56
2023-09-12T22:45:12.618Z,99666.75
2023-09-12T22:47:42.259Z,99680.84
2023-09-12T22:50:11.935Z,99638.25
2023-09-12T22:52:40.809Z,99673.28
2023-09-12T22:55:09.998Z,99676.22
2023-09-12T22:57:38.898Z,99619.16
2023-09-12T23:00:10.231Z,99677.69
2023-09-12T23:02:39.167Z,99674.28
2023-09-12T23:05:08.323Z,99664.13
2023-09-12T23:07:37.050Z,99684.81
2023-09-12T23:10:06.570Z,99665.34
2023-09-12T23:12:35.647Z,99681.88
2023-09-12T23:15:04.688Z,99692.44
2023-09-12T23:17:34.064Z,99700.97
2023-09-12T23:20:02.979Z,99685.81
2023-09-12T23:22:31.538Z,99681.66
2023-09-12T23:25:00.373Z,99704.16
2023-09-12T23:27:29.120Z,99695.09
2023-09-12T23:29:58.660Z,99708.69
2023-09-12T23:32:27.400Z,99639.81
2023-09-12T23:34:56.727Z,99692.03
2023-09-12T23:37:25.686Z,99702.44
2023-09-12T23:39:54.579Z,99685.41
2023-09-12T23:42:23.240Z,99682.19
2023-09-12T23:44:54.119Z,99718.38
2023-09-12T23:47:22.951Z,99690.13
2023-09-12T23:49:51.701Z,99707.13
2023-09-12T23:52:21.159Z,99690.28
2023-09-12T23:54:49.992Z,99715.25
2023-09-12T23:57:18.997Z,99699.22
2023-09-12T23:59:47.773Z,99691.94
